sensor_id;sensor_type;location;lat;lon;timestamp;pressure;altitude;pressure_sealevel;temperature;humidity
38163;BME280;23977;53.078;18.248;2023-09-07T00:00:13;102254.59;;;15.75;100.00
38163;BME280;23977;53.078;18.248;2023-09-07T00:02:59;102243.41;;;15.62;100.00
38163;BME280;23977;53.078;18.248;2023-09-07T00:05:25;102260.91;;;15.66;100.00
38163;BME280;23977;53.078;18.248;2023-09-07T00:07:51;102265.75;;;15.62;100.00
38163;BME280;23977;53.078;18.248;2023-09-07T00:10:17;102257.22;;;15.67;100.00
38163;BME280;23977;53.078;18.248;2023-09-07T00:12:43;102256.38;;;15.66;100.00
38163;BME280;23977;53.078;18.248;2023-09-07T00:15:09;102274.84;;;15.87;100.00
38163;BME280;23977;53.078;18.248;2023-09-07T00:17:36;102279.03;;;15.64;100.00
38163;BME280;23977;53.078;18.248;2023-09-07T00:20:02;102253.13;;;15.36;100.00
38163;BME280;23977;53.078;18.248;2023-09-07T00:22:36;102262.47;;;15.50;100.00
38163;BME280;23977;53.078;18.248;2023-09-07T00:25:02;102274.44;;;15.38;100.00
38163;BME280;23977;53.078;18.248;2023-09-07T00:27:29;102271.75;;;15.20;100.00
38163;BME280;23977;53.078;18.248;2023-09-07T00:29:55;102281.06;;;15.26;100.00
38163;BME280;23977;53.078;18.248;2023-09-07T00:32:20;102277.59;;;15.15;100.00
38163;BME280;23977;53.078;18.248;2023-09-07T00:34:46;102274.47;;;15.02;100.00
38163;BME280;23977;53.078;18.248;2023-09-07T00:37:12;102264.69;;;14.83;100.00
38163;BME280;23977;53.078;18.248;2023-09-07T00:39:37;102271.50;;;14.77;100.00
38163;BME280;23977;53.078;18.248;2023-09-07T00:42:03;102279.03;;;14.74;100.00
38163;BME280;23977;53.078;18.248;2023-09-07T00:44:29;102280.03;;;14.91;100.00
38163;BME280;23977;53.078;18.248;2023-09-07T00:46:56;102260.31;;;14.64;100.00
38163;BME280;23977;53.078;18.248;2023-09-07T00:49:22;102269.88;;;14.57;100.00
38163;BME280;23977;53.078;18.248;2023-09-07T00:51:48;102273.56;;;14.56;100.00
38163;BME280;23977;53.078;18.248;2023-09-07T00:54:14;102273.31;;;14.59;100.00
38163;BME280;23977;53.078;18.248;2023-09-07T00:56:40;102254.34;;;14.42;100.00
38163;BME280;23977;53.078;18.248;2023-09-07T00:59:07;102271.19;;;14.53;100.00
38163;BME280;23977;53.078;18.248;2023-09-07T01:01:33;102235.66;;;14.23;100.00
38163;BME280;23977;53.078;18.248;2023-09-07T01:04:00;102261.88;;;14.29;100.00
38163;BME280;23977;53.078;18.248;2023-09-07T01:06:32;102275.38;;;14.37;100.00
38163;BME280;23977;53.078;18.248;2023-09-07T01:09:05;102281.84;;;14.35;100.00
38163;BME280;23977;53.078;18.248;2023-09-07T01:11:37;102278.72;;;14.39;100.00
38163;BME280;23977;53.078;18.248;2023-09-07T01:14:03;102274.13;;;14.22;100.00
38163;BME280;23977;53.078;18.248;2023-09-07T01:16:30;102264.16;;;14.24;100.00
38163;BME280;23977;53.078;18.248;2023-09-07T01:19:00;102271.72;;;14.29;100.00
38163;BME280;23977;53.078;18.248;2023-09-07T01:21:27;102268.09;;;14.20;100.00
38163;BME280;23977;53.078;18.248;2023-09-07T01:23:54;102262.16;;;14.26;100.00
38163;BME280;23977;53.078;18.248;2023-09-07T01:26:20;102264.94;;;14.34;100.00
38163;BME280;23977;53.078;18.248;2023-09-07T01:28:46;102258.78;;;14.24;100.00
38163;BME280;23977;53.078;18.248;2023-09-07T01:31:11;102274.03;;;14.14;100.00
38163;BME280;23977;53.078;18.248;2023-09-07T01:33:37;102275.19;;;14.01;100.00
38163;BME280;23977;53.078;18.248;2023-09-07T01:36:03;102262.28;;;13.87;100.00
38163;BME280;23977;53.078;18.248;2023-09-07T01:38:29;102267.19;;;13.92;100.00
38163;BME280;23977;53.078;18.248;2023-09-07T01:40:55;102284.34;;;13.99;100.00
38163;BME280;23977;53.078;18.248;2023-09-07T01:43:20;102272.97;;;13.87;100.00
38163;BME280;23977;53.078;18.248;2023-09-07T01:45:46;102259.91;;;13.84;100.00
38163;BME280;23977;53.078;18.248;2023-09-07T01:48:14;102288.19;;;13.96;100.00
38163;BME280;23977;53.078;18.248;2023-09-07T01:50:39;102282.69;;;13.98;100.00
38163;BME280;23977;53.078;18.248;2023-09-07T01:53:05;102281.00;;;13.87;100.00
38163;BME280;23977;53.078;18.248;2023-09-07T01:55:31;102258.78;;;13.67;100.00
38163;BME280;23977;53.078;18.248;2023-09-07T01:57:57;102274.72;;;13.68;100.00
38163;BME280;23977;53.078;18.248;2023-09-07T02:00:23;102261.78;;;13.64;100.00
38163;BME280;23977;53.078;18.248;2023-09-07T02:02:48;102273.59;;;13.61;100.00
38163;BME280;23977;53.078;18.248;2023-09-07T02:05:14;102253.63;;;13.46;100.00
38163;BME280;23977;53.078;18.248;2023-09-07T02:07:40;102274.31;;;13.54;100.00
38163;BME280;23977;53.078;18.248;2023-09-07T02:10:06;102271.06;;;13.50;100.00
38163;BME280;23977;53.078;18.248;2023-09-07T02:12:31;102262.78;;;13.43;100.00
38163;BME280;23977;53.078;18.248;2023-09-07T02:15:00;102247.97;;;13.29;100.00
38163;BME280;23977;53.078;18.248;2023-09-07T02:17:27;102269.53;;;13.38;100.00
38163;BME280;23977;53.078;18.248;2023-09-07T02:19:52;102250.41;;;13.32;100.00
38163;BME280;23977;53.078;18.248;2023-09-07T02:22:18;102264.63;;;13.33;100.00
38163;BME280;23977;53.078;18.248;2023-09-07T02:24:43;102255.00;;;13.30;100.00
38163;BME280;23977;53.078;18.248;2023-09-07T02:27:09;102276.41;;;13.50;100.00
38163;BME280;23977;53.078;18.248;2023-09-07T02:29:35;102264.47;;;13.54;100.00
38163;BME280;23977;53.078;18.248;2023-09-07T02:32:00;102264.59;;;13.53;100.00
38163;BME280;23977;53.078;18.248;2023-09-07T02:34:26;102276.28;;;13.42;100.00
38163;BME280;23977;53.078;18.248;2023-09-07T02:36:52;102272.22;;;13.38;100.00
38163;BME280;23977;53.078;18.248;2023-09-07T02:39:17;102272.03;;;13.29;100.00
38163;BME280;23977;53.078;18.248;2023-09-07T02:41:44;102277.81;;;13.25;100.00
38163;BME280;23977;53.078;18.248;2023-09-07T02:44:10;102266.56;;;13.21;100.00
38163;BME280;23977;53.078;18.248;2023-09-07T02:46:36;102285.41;;;13.20;100.00
38163;BME280;23977;53.078;18.248;2023-09-07T02:49:02;102289.19;;;13.17;100.00
38163;BME280;23977;53.078;18.248;2023-09-07T02:51:27;102286.22;;;13.10;100.00
38163;BME280;23977;53.078;18.248;2023-09-07T02:53:53;102284.69;;;13.08;100.00
38163;BME280;23977;53.078;18.248;2023-09-07T02:56:19;102287.91;;;13.02;100.00
38163;BME280;23977;53.078;18.248;2023-09-07T02:58:45;102267.94;;;12.86;100.00
38163;BME280;23977;53.078;18.248;2023-09-07T03:01:11;102290.72;;;12.90;100.00
38163;BME280;23977;53.078;18.248;2023-09-07T03:03:37;102282.53;;;12.82;100.00
38163;BME280;23977;53.078;18.248;2023-09-07T03:06:11;102274.81;;;12.79;100.00
38163;BME280;23977;53.078;18.248;2023-09-07T03:08:37;102288.19;;;12.99;100.00
38163;BME280;23977;53.078;18.248;2023-09-07T03:11:04;102284.28;;;13.12;100.00
38163;BME280;23977;53.078;18.248;2023-09-07T03:13:30;102280.59;;;13.04;100.00
38163;BME280;23977;53.078;18.248;2023-09-07T03:15:56;102278.06;;;12.92;100.00
38163;BME280;23977;53.078;18.248;2023-09-07T03:18:22;102284.66;;;12.88;100.00
38163;BME280;23977;53.078;18.248;2023-09-07T03:20:49;102294.38;;;12.89;100.00
38163;BME280;23977;53.078;18.248;2023-09-07T03:23:15;102277.19;;;12.82;100.00
38163;BME280;23977;53.078;18.248;2023-09-07T03:25:40;102284.38;;;12.82;100.00
38163;BME280;23977;53.078;18.248;2023-09-07T03:28:06;102283.09;;;12.76;100.00
38163;BME280;23977;53.078;18.248;2023-09-07T03:30:33;102283.97;;;12.86;100.00
38163;BME280;23977;53.078;18.248;2023-09-07T03:32:58;102278.63;;;12.86;100.00
38163;BME280;23977;53.078;18.248;2023-09-07T03:35:24;102289.88;;;12.90;100.00
38163;BME280;23977;53.078;18.248;2023-09-07T03:37:50;102278.63;;;12.86;100.00
38163;BME280;23977;53.078;18.248;2023-09-07T03:40:16;102286.38;;;12.89;100.00
38163;BME280;23977;53.078;18.248;2023-09-07T03:42:41;102294.09;;;13.02;100.00
38163;BME280;23977;53.078;18.248;2023-09-07T03:45:09;102293.00;;;13.05;100.00
38163;BME280;23977;53.078;18.248;2023-09-07T03:47:34;102287.09;;;13.11;100.00
38163;BME280;23977;53.078;18.248;2023-09-07T03:50:00;102273.88;;;13.09;100.00
38163;BME280;23977;53.078;18.248;2023-09-07T03:52:26;102303.88;;;13.32;100.00
38163;BME280;23977;53.078;18.248;2023-09-07T03:54:56;102304.03;;;13.41;100.00
38163;BME280;23977;53.078;18.248;2023-09-07T03:57:22;102303.16;;;13.50;100.00
38163;BME280;23977;53.078;18.248;2023-09-07T03:59:51;102298.66;;;13.60;100.00
38163;BME280;23977;53.078;18.248;2023-09-07T04:02:16;102294.16;;;13.71;100.00
38163;BME280;23977;53.078;18.248;2023-09-07T04:04:43;102280.44;;;13.93;100.00
38163;BME280;23977;53.078;18.248;2023-09-07T04:07:09;102309.44;;;14.07;100.00
38163;BME280;23977;53.078;18.248;2023-09-07T04:09:35;102291.25;;;14.01;100.00
38163;BME280;23977;53.078;18.248;2023-09-07T04:12:00;102294.88;;;14.20;100.00
38163;BME280;23977;53.078;18.248;2023-09-07T04:14:26;102304.72;;;14.29;100.00
38163;BME280;23977;53.078;18.248;2023-09-07T04:16:53;102306.63;;;14.37;100.00
38163;BME280;23977;53.078;18.248;2023-09-07T04:19:19;102303.34;;;14.53;100.00
38163;BME280;23977;53.078;18.248;2023-09-07T04:21:44;102303.06;;;14.56;100.00
38163;BME280;23977;53.078;18.248;2023-09-07T04:24:12;102302.38;;;14.54;100.00
38163;BME280;23977;53.078;18.248;2023-09-07T04:26:37;102304.72;;;14.57;100.00
38163;BME280;23977;53.078;18.248;2023-09-07T04:29:03;102301.22;;;14.56;100.00
38163;BME280;23977;53.078;18.248;2023-09-07T04:31:29;102311.25;;;14.82;100.00
38163;BME280;23977;53.078;18.248;2023-09-07T04:33:55;102320.63;;;14.96;100.00
38163;BME280;23977;53.078;18.248;2023-09-07T04:36:21;102325.47;;;15.10;100.00
38163;BME280;23977;53.078;18.248;2023-09-07T04:38:46;102330.06;;;15.18;100.00
38163;BME280;23977;53.078;18.248;2023-09-07T04:41:13;102325.34;;;15.30;100.00
38163;BME280;23977;53.078;18.248;2023-09-07T04:43:41;102315.91;;;15.26;100.00
38163;BME280;23977;53.078;18.248;2023-09-07T04:46:12;102323.75;;;15.37;100.00
38163;BME280;23977;53.078;18.248;2023-09-07T04:48:39;102321.75;;;15.39;100.00
38163;BME280;23977;53.078;18.248;2023-09-07T04:51:08;102338.97;;;15.54;100.00
38163;BME280;23977;53.078;18.248;2023-09-07T04:53:36;102326.09;;;15.58;100.00
38163;BME280;23977;53.078;18.248;2023-09-07T04:56:02;102324.78;;;15.62;100.00
38163;BME280;23977;53.078;18.248;2023-09-07T04:58:28;102337.69;;;15.77;100.00
38163;BME280;23977;53.078;18.248;2023-09-07T05:00:54;102314.53;;;15.76;100.00
38163;BME280;23977;53.078;18.248;2023-09-07T05:03:19;102321.16;;;15.89;100.00
38163;BME280;23977;53.078;18.248;2023-09-07T05:05:51;102325.28;;;16.02;100.00
38163;BME280;23977;53.078;18.248;2023-09-07T05:08:17;102319.84;;;15.94;100.00
38163;BME280;23977;53.078;18.248;2023-09-07T05:10:42;102322.31;;;16.13;100.00
38163;BME280;23977;53.078;18.248;2023-09-07T05:13:08;102331.47;;;16.28;100.00
38163;BME280;23977;53.078;18.248;2023-09-07T05:15:33;102323.59;;;16.27;100.00
38163;BME280;23977;53.078;18.248;2023-09-07T05:17:59;102339.38;;;16.30;100.00
38163;BME280;23977;53.078;18.248;2023-09-07T05:20:25;102333.53;;;16.35;100.00
38163;BME280;23977;53.078;18.248;2023-09-07T05:22:52;102351.59;;;16.51;100.00
38163;BME280;23977;53.078;18.248;2023-09-07T05:25:18;102342.97;;;16.39;100.00
38163;BME280;23977;53.078;18.248;2023-09-07T05:27:45;102346.00;;;16.78;100.00
38163;BME280;23977;53.078;18.248;2023-09-07T05:30:11;102327.97;;;16.62;100.00
38163;BME280;23977;53.078;18.248;2023-09-07T05:32:37;102340.25;;;16.73;100.00
38163;BME280;23977;53.078;18.248;2023-09-07T05:35:02;102342.59;;;16.68;100.00
38163;BME280;23977;53.078;18.248;2023-09-07T05:37:28;102349.03;;;16.75;100.00
38163;BME280;23977;53.078;18.248;2023-09-07T05:39:54;102347.91;;;16.86;100.00
38163;BME280;23977;53.078;18.248;2023-09-07T05:42:19;102344.91;;;16.89;100.00
38163;BME280;23977;53.078;18.248;2023-09-07T05:44:45;102344.09;;;17.05;100.00
38163;BME280;23977;53.078;18.248;2023-09-07T05:47:11;102338.88;;;17.12;100.00
38163;BME280;23977;53.078;18.248;2023-09-07T05:49:36;102349.50;;;17.13;100.00
38163;BME280;23977;53.078;18.248;2023-09-07T05:52:02;102346.00;;;17.21;100.00
38163;BME280;23977;53.078;18.248;2023-09-07T05:54:28;102355.25;;;17.35;100.00
38163;BME280;23977;53.078;18.248;2023-09-07T05:56:53;102362.53;;;17.51;100.00
38163;BME280;23977;53.078;18.248;2023-09-07T05:59:19;102353.09;;;17.63;100.00
38163;BME280;23977;53.078;18.248;2023-09-07T06:01:45;102341.31;;;17.56;100.00
38163;BME280;23977;53.078;18.248;2023-09-07T06:04:10;102359.50;;;17.70;100.00
38163;BME280;23977;53.078;18.248;2023-09-07T06:06:36;102344.69;;;17.58;100.00
38163;BME280;23977;53.078;18.248;2023-09-07T06:09:01;102364.03;;;17.86;100.00
38163;BME280;23977;53.078;18.248;2023-09-07T06:11:29;102364.53;;;18.15;100.00
38163;BME280;23977;53.078;18.248;2023-09-07T06:13:55;102356.47;;;18.15;100.00
38163;BME280;23977;53.078;18.248;2023-09-07T06:16:21;102374.81;;;18.19;100.00
38163;BME280;23977;53.078;18.248;2023-09-07T06:18:47;102361.69;;;18.08;100.00
38163;BME280;23977;53.078;18.248;2023-09-07T06:21:12;102380.03;;;18.21;100.00
38163;BME280;23977;53.078;18.248;2023-09-07T06:23:38;102383.69;;;18.36;100.00
38163;BME280;23977;53.078;18.248;2023-09-07T06:26:04;102382.22;;;18.17;100.00
38163;BME280;23977;53.078;18.248;2023-09-07T06:28:29;102362.53;;;18.08;100.00
38163;BME280;23977;53.078;18.248;2023-09-07T06:30:55;102386.25;;;18.21;100.00
38163;BME280;23977;53.078;18.248;2023-09-07T06:33:20;102382.66;;;18.54;100.00
38163;BME280;23977;53.078;18.248;2023-09-07T06:35:46;102363.63;;;18.95;100.00
38163;BME280;23977;53.078;18.248;2023-09-07T06:38:13;102361.63;;;18.97;100.00
38163;BME280;23977;53.078;18.248;2023-09-07T06:40:47;102277.00;;;18.90;100.00
38163;BME280;23977;53.078;18.248;2023-09-07T06:43:30;102305.16;;;19.56;98.29
38163;BME280;23977;53.078;18.248;2023-09-07T06:46:11;102296.59;;;19.76;94.62
38163;BME280;23977;53.078;18.248;2023-09-07T06:48:45;102365.91;;;20.22;92.88
38163;BME280;23977;53.078;18.248;2023-09-07T06:51:15;102362.19;;;19.85;94.63
38163;BME280;23977;53.078;18.248;2023-09-07T06:53:55;102354.69;;;19.49;96.54
38163;BME280;23977;53.078;18.248;2023-09-07T06:56:24;102321.66;;;19.23;96.26
38163;BME280;23977;53.078;18.248;2023-09-07T06:58:57;102314.25;;;19.17;96.82
38163;BME280;23977;53.078;18.248;2023-09-07T07:01:23;102315.06;;;18.95;98.07
38163;BME280;23977;53.078;18.248;2023-09-07T07:03:51;102384.94;;;19.44;98.34
38163;BME280;23977;53.078;18.248;2023-09-07T07:06:18;102404.03;;;19.66;98.35
38163;BME280;23977;53.078;18.248;2023-09-07T07:08:44;102316.09;;;20.01;96.38
38163;BME280;23977;53.078;18.248;2023-09-07T07:11:13;102377.53;;;21.33;90.24
38163;BME280;23977;53.078;18.248;2023-09-07T07:19:06;102329.44;;;21.78;84.42
38163;BME280;23977;53.078;18.248;2023-09-07T07:21:59;102406.81;;;22.09;84.96
38163;BME280;23977;53.078;18.248;2023-09-07T07:24:34;102407.69;;;22.16;84.68
38163;BME280;23977;53.078;18.248;2023-09-07T07:27:49;102325.38;;;21.96;83.18
38163;BME280;23977;53.078;18.248;2023-09-07T07:30:40;102428.78;;;23.19;81.13
38163;BME280;23977;53.078;18.248;2023-09-07T07:33:13;102333.63;;;26.68;67.36
38163;BME280;23977;53.078;18.248;2023-09-07T07:35:58;102325.00;;;30.53;54.82
38163;BME280;23977;53.078;18.248;2023-09-07T07:38:24;102400.94;;;33.63;46.20
38163;BME280;23977;53.078;18.248;2023-09-07T07:40:50;102384.06;;;36.14;40.67
38163;BME280;23977;53.078;18.248;2023-09-07T07:43:18;102385.75;;;38.09;37.08
38163;BME280;23977;53.078;18.248;2023-09-07T07:45:43;102381.94;;;39.42;33.96
38163;BME280;23977;53.078;18.248;2023-09-07T07:48:09;102391.47;;;38.82;34.21
38163;BME280;23977;53.078;18.248;2023-09-07T07:50:38;102375.50;;;39.10;34.92
38163;BME280;23977;53.078;18.248;2023-09-07T07:53:05;102399.31;;;38.80;35.20
38163;BME280;23977;53.078;18.248;2023-09-07T07:55:38;102391.28;;;39.69;33.79
38163;BME280;23977;53.078;18.248;2023-09-07T07:58:07;102379.72;;;41.55;31.40
38163;BME280;23977;53.078;18.248;2023-09-07T08:00:36;102380.09;;;41.45;31.12
38163;BME280;23977;53.078;18.248;2023-09-07T08:03:02;102384.41;;;43.25;29.48
38163;BME280;23977;53.078;18.248;2023-09-07T08:05:29;102377.09;;;42.99;29.79
38163;BME280;23977;53.078;18.248;2023-09-07T08:07:57;102367.13;;;44.06;28.52
38163;BME280;23977;53.078;18.248;2023-09-07T08:10:23;102365.72;;;44.93;27.04
38163;BME280;23977;53.078;18.248;2023-09-07T08:12:53;102373.00;;;45.70;26.90
38163;BME280;23977;53.078;18.248;2023-09-07T08:15:18;102358.31;;;45.77;26.72
38163;BME280;23977;53.078;18.248;2023-09-07T08:17:47;102357.44;;;47.25;24.61
38163;BME280;23977;53.078;18.248;2023-09-07T08:20:13;102360.59;;;46.07;26.05
38163;BME280;23977;53.078;18.248;2023-09-07T08:22:39;102363.19;;;46.31;26.16
38163;BME280;23977;53.078;18.248;2023-09-07T08:25:09;102362.50;;;46.54;25.26
38163;BME280;23977;53.078;18.248;2023-09-07T08:27:35;102361.25;;;47.14;25.35
38163;BME280;23977;53.078;18.248;2023-09-07T08:30:01;102344.75;;;46.73;25.08
38163;BME280;23977;53.078;18.248;2023-09-07T08:32:27;102357.13;;;48.04;24.51
38163;BME280;23977;53.078;18.248;2023-09-07T08:34:52;102355.69;;;48.17;24.00
38163;BME280;23977;53.078;18.248;2023-09-07T08:37:22;102339.19;;;49.32;23.58
38163;BME280;23977;53.078;18.248;2023-09-07T08:39:48;102324.63;;;50.84;21.59
38163;BME280;23977;53.078;18.248;2023-09-07T08:42:14;102339.19;;;48.53;23.78
38163;BME280;23977;53.078;18.248;2023-09-07T08:44:40;102328.56;;;49.14;23.57
38163;BME280;23977;53.078;18.248;2023-09-07T08:47:08;102332.78;;;51.11;22.03
38163;BME280;23977;53.078;18.248;2023-09-07T08:49:34;102341.72;;;49.44;22.91
38163;BME280;23977;53.078;18.248;2023-09-07T08:52:02;102343.94;;;46.53;24.46
38163;BME280;23977;53.078;18.248;2023-09-07T08:54:30;102355.75;;;43.53;27.25
38163;BME280;23977;53.078;18.248;2023-09-07T08:56:58;102347.13;;;40.60;30.46
38163;BME280;23977;53.078;18.248;2023-09-07T08:59:25;102340.75;;;39.53;31.85
38163;BME280;23977;53.078;18.248;2023-09-07T09:01:56;102337.50;;;39.06;33.38
38163;BME280;23977;53.078;18.248;2023-09-07T09:04:21;102334.16;;;39.89;32.80
38163;BME280;23977;53.078;18.248;2023-09-07T09:06:48;102339.44;;;43.09;29.37
38163;BME280;23977;53.078;18.248;2023-09-07T09:09:22;102338.94;;;45.91;26.48
38163;BME280;23977;53.078;18.248;2023-09-07T09:11:49;102331.34;;;47.55;25.22
38163;BME280;23977;53.078;18.248;2023-09-07T09:14:16;102323.84;;;47.93;24.36
38163;BME280;23977;53.078;18.248;2023-09-07T09:16:49;102329.81;;;48.79;23.58
38163;BME280;23977;53.078;18.248;2023-09-07T09:19:15;102319.47;;;49.98;22.75
38163;BME280;23977;53.078;18.248;2023-09-07T09:21:41;102321.50;;;50.01;22.70
38163;BME280;23977;53.078;18.248;2023-09-07T09:24:10;102321.41;;;49.87;22.91
38163;BME280;23977;53.078;18.248;2023-09-07T09:26:37;102326.16;;;50.49;22.10
38163;BME280;23977;53.078;18.248;2023-09-07T09:29:03;102325.72;;;49.62;22.78
38163;BME280;23977;53.078;18.248;2023-09-07T09:31:29;102302.66;;;48.71;22.92
38163;BME280;23977;53.078;18.248;2023-09-07T09:33:55;102317.00;;;48.89;23.50
38163;BME280;23977;53.078;18.248;2023-09-07T09:36:22;102304.56;;;48.60;23.78
38163;BME280;23977;53.078;18.248;2023-09-07T09:38:49;102311.41;;;47.68;24.72
38163;BME280;23977;53.078;18.248;2023-09-07T09:41:17;102295.94;;;48.83;22.94
38163;BME280;23977;53.078;18.248;2023-09-07T09:43:43;102302.16;;;48.62;23.40
38163;BME280;23977;53.078;18.248;2023-09-07T09:46:10;102291.03;;;49.17;23.54
38163;BME280;23977;53.078;18.248;2023-09-07T09:48:37;102306.56;;;47.68;24.54
38163;BME280;23977;53.078;18.248;2023-09-07T09:51:04;102299.13;;;48.40;24.00
38163;BME280;23977;53.078;18.248;2023-09-07T09:53:30;102293.38;;;48.70;23.62
38163;BME280;23977;53.078;18.248;2023-09-07T09:55:56;102307.47;;;47.26;24.73
38163;BME280;23977;53.078;18.248;2023-09-07T09:58:21;102291.97;;;45.76;25.91
38163;BME280;23977;53.078;18.248;2023-09-07T10:00:51;102301.31;;;45.80;25.66
38163;BME280;23977;53.078;18.248;2023-09-07T10:03:24;102293.47;;;46.25;25.57
38163;BME280;23977;53.078;18.248;2023-09-07T10:05:52;102292.72;;;44.65;26.49
38163;BME280;23977;53.078;18.248;2023-09-07T10:08:19;102291.06;;;43.83;27.42
38163;BME280;23977;53.078;18.248;2023-09-07T10:11:14;102295.88;;;43.12;28.63
38163;BME280;23977;53.078;18.248;2023-09-07T10:17:00;102294.03;;;39.50;32.07
38163;BME280;23977;53.078;18.248;2023-09-07T10:19:30;102239.81;;;36.00;36.76
38163;BME280;23977;53.078;18.248;2023-09-07T10:21:58;102262.97;;;34.23;40.89
38163;BME280;23977;53.078;18.248;2023-09-07T10:28:24;102251.75;;;31.61;45.02
38163;BME280;23977;53.078;18.248;2023-09-07T10:31:27;102240.06;;;30.52;46.71
38163;BME280;23977;53.078;18.248;2023-09-07T10:34:10;102310.03;;;30.44;48.14
38163;BME280;23977;53.078;18.248;2023-09-07T10:37:03;102312.06;;;30.32;49.15
38163;BME280;23977;53.078;18.248;2023-09-07T10:42:08;102231.06;;;29.51;49.10
38163;BME280;23977;53.078;18.248;2023-09-07T10:44:47;102198.38;;;28.76;48.92
38163;BME280;23977;53.078;18.248;2023-09-07T10:47:22;102306.91;;;29.40;49.64
38163;BME280;23977;53.078;18.248;2023-09-07T10:49:48;102267.34;;;29.19;51.29
38163;BME280;23977;53.078;18.248;2023-09-07T10:52:14;102220.63;;;28.80;51.07
38163;BME280;23977;53.078;18.248;2023-09-07T10:54:40;102243.81;;;29.06;51.20
38163;BME280;23977;53.078;18.248;2023-09-07T10:57:09;102283.94;;;29.12;50.48
38163;BME280;23977;53.078;18.248;2023-09-07T10:59:36;102296.41;;;29.03;52.31
38163;BME280;23977;53.078;18.248;2023-09-07T11:02:05;102300.19;;;28.85;53.45
38163;BME280;23977;53.078;18.248;2023-09-07T11:04:31;102302.00;;;28.79;52.56
38163;BME280;23977;53.078;18.248;2023-09-07T11:07:00;102284.19;;;28.65;53.89
38163;BME280;23977;53.078;18.248;2023-09-07T11:09:34;102272.28;;;28.88;53.09
38163;BME280;23977;53.078;18.248;2023-09-07T11:12:06;102237.09;;;28.39;53.56
38163;BME280;23977;53.078;18.248;2023-09-07T11:32:20;102187.19;;;27.68;54.19
38163;BME280;23977;53.078;18.248;2023-09-07T12:10:07;102174.09;;;27.23;52.99
38163;BME280;23977;53.078;18.248;2023-09-07T12:16:12;102182.19;;;27.18;53.31
38163;BME280;23977;53.078;18.248;2023-09-07T12:20:00;102267.31;;;27.80;52.85
38163;BME280;23977;53.078;18.248;2023-09-07T12:22:29;102210.16;;;27.43;52.99
38163;BME280;23977;53.078;18.248;2023-09-07T12:24:55;102234.50;;;27.68;53.50
38163;BME280;23977;53.078;18.248;2023-09-07T12:27:21;102258.88;;;28.05;52.70
38163;BME280;23977;53.078;18.248;2023-09-07T12:29:47;102233.31;;;28.00;51.93
38163;BME280;23977;53.078;18.248;2023-09-07T12:32:14;102242.44;;;28.05;51.47
38163;BME280;23977;53.078;18.248;2023-09-07T12:34:40;102253.88;;;28.02;51.11
38163;BME280;23977;53.078;18.248;2023-09-07T12:37:05;102255.56;;;27.80;50.68
38163;BME280;23977;53.078;18.248;2023-09-07T12:39:32;102253.63;;;27.92;50.97
38163;BME280;23977;53.078;18.248;2023-09-07T12:41:58;102247.56;;;28.02;50.61
38163;BME280;23977;53.078;18.248;2023-09-07T12:44:24;102235.09;;;27.82;51.45
38163;BME280;23977;53.078;18.248;2023-09-07T12:46:49;102245.31;;;27.87;52.14
38163;BME280;23977;53.078;18.248;2023-09-07T12:49:15;102227.31;;;27.91;52.09
38163;BME280;23977;53.078;18.248;2023-09-07T12:51:42;102217.94;;;27.87;51.52
38163;BME280;23977;53.078;18.248;2023-09-07T12:54:12;102185.44;;;27.50;51.75
38163;BME280;23977;53.078;18.248;2023-09-07T12:56:55;102236.78;;;27.72;51.58
38163;BME280;23977;53.078;18.248;2023-09-07T13:00:05;102212.44;;;27.46;52.87
38163;BME280;23977;53.078;18.248;2023-09-07T13:02:55;102204.44;;;27.68;52.21
38163;BME280;23977;53.078;18.248;2023-09-07T13:05:41;102205.13;;;27.76;52.90
38163;BME280;23977;53.078;18.248;2023-09-07T13:08:07;102226.66;;;27.72;52.98
38163;BME280;23977;53.078;18.248;2023-09-07T13:10:33;102210.03;;;27.62;53.68
38163;BME280;23977;53.078;18.248;2023-09-07T13:12:59;102152.34;;;27.16;53.14
38163;BME280;23977;53.078;18.248;2023-09-07T13:15:24;102208.47;;;27.54;53.10
38163;BME280;23977;53.078;18.248;2023-09-07T13:17:50;102178.03;;;27.15;53.14
38163;BME280;23977;53.078;18.248;2023-09-07T13:20:16;102164.38;;;26.91;53.57
38163;BME280;23977;53.078;18.248;2023-09-07T13:22:42;102131.84;;;26.59;53.96
38163;BME280;23977;53.078;18.248;2023-09-07T13:25:08;102195.13;;;26.99;54.27
38163;BME280;23977;53.078;18.248;2023-09-07T13:27:34;102203.91;;;27.01;53.30
38163;BME280;23977;53.078;18.248;2023-09-07T13:30:01;102207.22;;;27.03;53.67
38163;BME280;23977;53.078;18.248;2023-09-07T13:32:27;102134.19;;;26.44;53.75
38163;BME280;23977;53.078;18.248;2023-09-07T13:34:53;102175.28;;;26.80;53.79
38163;BME280;23977;53.078;18.248;2023-09-07T13:37:18;102195.00;;;27.05;51.20
38163;BME280;23977;53.078;18.248;2023-09-07T13:39:44;102160.44;;;27.11;50.96
38163;BME280;23977;53.078;18.248;2023-09-07T13:42:10;102178.28;;;27.25;52.76
38163;BME280;23977;53.078;18.248;2023-09-07T13:44:36;102149.38;;;27.06;52.65
38163;BME280;23977;53.078;18.248;2023-09-07T13:47:01;102187.28;;;27.14;52.32
38163;BME280;23977;53.078;18.248;2023-09-07T13:49:27;102186.72;;;27.12;53.21
38163;BME280;23977;53.078;18.248;2023-09-07T13:51:56;102191.22;;;27.06;53.51